sensor_id;sensor_type;location;lat;lon;timestamp;temperature;humidity
37788;DHT22;23627;53.302;-6.362;2023-07-13T00:02:23;14.20;99.90
37788;DHT22;23627;53.302;-6.362;2023-07-13T00:04:49;14.20;99.90
37788;DHT22;23627;53.302;-6.362;2023-07-13T00:07:16;14.20;99.90
37788;DHT22;23627;53.302;-6.362;2023-07-13T00:09:46;14.10;99.90
37788;DHT22;23627;53.302;-6.362;2023-07-13T00:12:27;14.10;99.90
37788;DHT22;23627;53.302;-6.362;2023-07-13T00:15:00;14.10;99.90
37788;DHT22;23627;53.302;-6.362;2023-07-13T00:17:27;14.10;99.90
37788;DHT22;23627;53.302;-6.362;2023-07-13T00:19:54;14.10;99.90
37788;DHT22;23627;53.302;-6.362;2023-07-13T00:22:21;14.10;99.90
37788;DHT22;23627;53.302;-6.362;2023-07-13T00:24:49;14.10;99.90
37788;DHT22;23627;53.302;-6.362;2023-07-13T00:27:17;14.00;99.90
37788;DHT22;23627;53.302;-6.362;2023-07-13T00:29:44;14.00;99.90
37788;DHT22;23627;53.302;-6.362;2023-07-13T00:32:10;14.00;99.90
37788;DHT22;23627;53.302;-6.362;2023-07-13T00:34:37;14.00;99.90
37788;DHT22;23627;53.302;-6.362;2023-07-13T00:37:04;14.00;99.90
37788;DHT22;23627;53.302;-6.362;2023-07-13T00:39:32;14.00;99.90
37788;DHT22;23627;53.302;-6.362;2023-07-13T00:41:59;14.00;99.90
37788;DHT22;23627;53.302;-6.362;2023-07-13T00:44:25;14.00;99.90
37788;DHT22;23627;53.302;-6.362;2023-07-13T00:46:51;14.00;99.90
37788;DHT22;23627;53.302;-6.362;2023-07-13T00:49:21;14.00;99.90
37788;DHT22;23627;53.302;-6.362;2023-07-13T00:51:59;14.00;99.90
37788;DHT22;23627;53.302;-6.362;2023-07-13T00:54:30;14.00;99.90
37788;DHT22;23627;53.302;-6.362;2023-07-13T00:57:02;14.00;99.90
37788;DHT22;23627;53.302;-6.362;2023-07-13T00:59:28;14.00;99.90
37788;DHT22;23627;53.302;-6.362;2023-07-13T01:01:55;14.00;99.90
37788;DHT22;23627;53.302;-6.362;2023-07-13T01:04:26;14.00;99.90
37788;DHT22;23627;53.302;-6.362;2023-07-13T01:06:52;14.00;99.90
37788;DHT22;23627;53.302;-6.362;2023-07-13T01:09:19;14.00;99.90
37788;DHT22;23627;53.302;-6.362;2023-07-13T01:11:46;14.00;99.90
37788;DHT22;23627;53.302;-6.362;2023-07-13T01:14:13;14.00;99.90
37788;DHT22;23627;53.302;-6.362;2023-07-13T01:16:41;13.90;99.90
37788;DHT22;23627;53.302;-6.362;2023-07-13T01:21:50;13.90;99.90
37788;DHT22;23627;53.302;-6.362;2023-07-13T01:24:16;13.90;99.90
37788;DHT22;23627;53.302;-6.362;2023-07-13T01:26:41;13.90;99.90
37788;DHT22;23627;53.302;-6.362;2023-07-13T01:29:08;13.90;99.90
37788;DHT22;23627;53.302;-6.362;2023-07-13T01:31:33;13.90;99.90
37788;DHT22;23627;53.302;-6.362;2023-07-13T01:33:59;13.80;99.90
37788;DHT22;23627;53.302;-6.362;2023-07-13T01:36:25;13.80;99.90
37788;DHT22;23627;53.302;-6.362;2023-07-13T01:38:51;13.80;99.90
37788;DHT22;23627;53.302;-6.362;2023-07-13T01:41:16;13.80;99.90
37788;DHT22;23627;53.302;-6.362;2023-07-13T01:43:42;13.80;99.90
37788;DHT22;23627;53.302;-6.362;2023-07-13T01:46:08;13.80;99.90
37788;DHT22;23627;53.302;-6.362;2023-07-13T01:48:34;13.80;99.90
37788;DHT22;23627;53.302;-6.362;2023-07-13T01:50:59;13.80;99.90
37788;DHT22;23627;53.302;-6.362;2023-07-13T01:53:25;13.70;99.90
37788;DHT22;23627;53.302;-6.362;2023-07-13T01:55:51;13.70;99.90
37788;DHT22;23627;53.302;-6.362;2023-07-13T01:58:16;13.70;99.90
37788;DHT22;23627;53.302;-6.362;2023-07-13T02:00:42;13.70;99.90
37788;DHT22;23627;53.302;-6.362;2023-07-13T02:03:08;13.70;99.90
37788;DHT22;23627;53.302;-6.362;2023-07-13T02:05:34;13.70;99.90
37788;DHT22;23627;53.302;-6.362;2023-07-13T02:07:59;13.70;99.90
37788;DHT22;23627;53.302;-6.362;2023-07-13T02:10:25;13.70;99.90
37788;DHT22;23627;53.302;-6.362;2023-07-13T02:12:51;13.70;99.90
37788;DHT22;23627;53.302;-6.362;2023-07-13T02:15:17;13.70;99.90
37788;DHT22;23627;53.302;-6.362;2023-07-13T02:17:43;13.60;99.90
37788;DHT22;23627;53.302;-6.362;2023-07-13T02:20:09;13.60;99.90
37788;DHT22;23627;53.302;-6.362;2023-07-13T02:22:35;13.60;99.90
37788;DHT22;23627;53.302;-6.362;2023-07-13T02:25:01;13.60;99.90
37788;DHT22;23627;53.302;-6.362;2023-07-13T02:27:27;13.60;99.90
37788;DHT22;23627;53.302;-6.362;2023-07-13T02:29:53;13.60;99.90
37788;DHT22;23627;53.302;-6.362;2023-07-13T02:32:18;13.60;99.90
37788;DHT22;23627;53.302;-6.362;2023-07-13T02:34:44;13.60;99.90
37788;DHT22;23627;53.302;-6.362;2023-07-13T02:37:10;13.60;99.90
37788;DHT22;23627;53.302;-6.362;2023-07-13T02:39:36;13.60;99.90
37788;DHT22;23627;53.302;-6.362;2023-07-13T02:42:02;13.50;99.90
37788;DHT22;23627;53.302;-6.362;2023-07-13T02:44:29;13.50;99.90
37788;DHT22;23627;53.302;-6.362;2023-07-13T02:46:54;13.50;99.90
37788;DHT22;23627;53.302;-6.362;2023-07-13T02:49:20;13.50;99.90
37788;DHT22;23627;53.302;-6.362;2023-07-13T02:51:46;13.50;99.90
37788;DHT22;23627;53.302;-6.362;2023-07-13T02:54:12;13.50;99.90
37788;DHT22;23627;53.302;-6.362;2023-07-13T02:56:39;13.50;99.90
37788;DHT22;23627;53.302;-6.362;2023-07-13T02:59:05;13.50;99.90
37788;DHT22;23627;53.302;-6.362;2023-07-13T03:01:31;13.40;99.90
37788;DHT22;23627;53.302;-6.362;2023-07-13T03:04:00;13.40;99.90
37788;DHT22;23627;53.302;-6.362;2023-07-13T03:06:26;13.40;99.90
37788;DHT22;23627;53.302;-6.362;2023-07-13T03:08:56;13.40;99.90
37788;DHT22;23627;53.302;-6.362;2023-07-13T03:11:21;13.40;99.90
37788;DHT22;23627;53.302;-6.362;2023-07-13T03:13:47;13.40;99.90
37788;DHT22;23627;53.302;-6.362;2023-07-13T03:16:15;13.30;99.90
37788;DHT22;23627;53.302;-6.362;2023-07-13T03:18:41;13.30;99.90
37788;DHT22;23627;53.302;-6.362;2023-07-13T03:21:07;13.30;99.90
37788;DHT22;23627;53.302;-6.362;2023-07-13T03:23:33;13.30;99.90
37788;DHT22;23627;53.302;-6.362;2023-07-13T03:26:08;13.30;99.90
37788;DHT22;23627;53.302;-6.362;2023-07-13T03:28:34;13.30;99.90
37788;DHT22;23627;53.302;-6.362;2023-07-13T03:31:12;13.20;99.90
37788;DHT22;23627;53.302;-6.362;2023-07-13T03:33:38;13.20;99.90
37788;DHT22;23627;53.302;-6.362;2023-07-13T03:36:05;13.20;99.90
37788;DHT22;23627;53.302;-6.362;2023-07-13T03:38:31;13.20;99.90
37788;DHT22;23627;53.302;-6.362;2023-07-13T03:40:57;13.20;99.90
37788;DHT22;23627;53.302;-6.362;2023-07-13T03:43:23;13.10;99.90
37788;DHT22;23627;53.302;-6.362;2023-07-13T03:45:49;13.20;99.90
37788;DHT22;23627;53.302;-6.362;2023-07-13T03:48:14;13.10;99.90
37788;DHT22;23627;53.302;-6.362;2023-07-13T03:50:40;13.20;99.90
37788;DHT22;23627;53.302;-6.362;2023-07-13T03:53:07;13.10;99.90
37788;DHT22;23627;53.302;-6.362;2023-07-13T03:55:32;13.10;99.90
37788;DHT22;23627;53.302;-6.362;2023-07-13T03:58:01;13.10;99.90
37788;DHT22;23627;53.302;-6.362;2023-07-13T04:00:45;13.10;99.90
37788;DHT22;23627;53.302;-6.362;2023-07-13T04:03:11;13.10;99.90
37788;DHT22;23627;53.302;-6.362;2023-07-13T04:05:36;13.10;99.90
37788;DHT22;23627;53.302;-6.362;2023-07-13T04:08:04;13.10;99.90
37788;DHT22;23627;53.302;-6.362;2023-07-13T04:10:30;13.10;99.90
37788;DHT22;23627;53.302;-6.362;2023-07-13T04:12:56;13.00;99.90
37788;DHT22;23627;53.302;-6.362;2023-07-13T04:15:21;13.10;99.90
37788;DHT22;23627;53.302;-6.362;2023-07-13T04:17:47;13.10;99.90
37788;DHT22;23627;53.302;-6.362;2023-07-13T04:20:13;13.10;99.90
37788;DHT22;23627;53.302;-6.362;2023-07-13T04:22:39;13.10;99.90
37788;DHT22;23627;53.302;-6.362;2023-07-13T04:25:04;13.10;99.90
37788;DHT22;23627;53.302;-6.362;2023-07-13T04:27:30;13.10;99.90
37788;DHT22;23627;53.302;-6.362;2023-07-13T04:29:56;13.10;99.90
37788;DHT22;23627;53.302;-6.362;2023-07-13T04:32:22;13.10;99.90
37788;DHT22;23627;53.302;-6.362;2023-07-13T04:34:48;13.20;99.90
37788;DHT22;23627;53.302;-6.362;2023-07-13T04:37:17;13.20;99.90
37788;DHT22;23627;53.302;-6.362;2023-07-13T04:39:43;13.20;99.90
37788;DHT22;23627;53.302;-6.362;2023-07-13T04:42:08;13.20;99.90
37788;DHT22;23627;53.302;-6.362;2023-07-13T04:44:34;13.30;99.90
37788;DHT22;23627;53.302;-6.362;2023-07-13T04:47:00;13.30;99.90
37788;DHT22;23627;53.302;-6.362;2023-07-13T04:49:26;13.30;99.90
37788;DHT22;23627;53.302;-6.362;2023-07-13T04:51:51;13.30;99.90
37788;DHT22;23627;53.302;-6.362;2023-07-13T04:54:17;13.30;99.90
37788;DHT22;23627;53.302;-6.362;2023-07-13T04:56:43;13.30;99.90
37788;DHT22;23627;53.302;-6.362;2023-07-13T04:59:08;13.30;99.90
37788;DHT22;23627;53.302;-6.362;2023-07-13T05:01:34;13.30;99.90
37788;DHT22;23627;53.302;-6.362;2023-07-13T05:04:00;13.40;99.90
37788;DHT22;23627;53.302;-6.362;2023-07-13T05:06:26;13.40;99.90
37788;DHT22;23627;53.302;-6.362;2023-07-13T05:08:52;13.40;99.90
37788;DHT22;23627;53.302;-6.362;2023-07-13T05:11:18;13.40;99.90
37788;DHT22;23627;53.302;-6.362;2023-07-13T05:13:44;13.40;99.90
37788;DHT22;23627;53.302;-6.362;2023-07-13T05:16:10;13.40;99.90
37788;DHT22;23627;53.302;-6.362;2023-07-13T05:18:36;13.40;99.90
37788;DHT22;23627;53.302;-6.362;2023-07-13T05:21:07;13.40;99.90
37788;DHT22;23627;53.302;-6.362;2023-07-13T05:23:34;13.50;99.90
37788;DHT22;23627;53.302;-6.362;2023-07-13T05:26:00;13.60;99.90
37788;DHT22;23627;53.302;-6.362;2023-07-13T05:28:27;13.70;99.90
37788;DHT22;23627;53.302;-6.362;2023-07-13T05:30:53;13.80;99.90
37788;DHT22;23627;53.302;-6.362;2023-07-13T05:33:20;13.80;99.90
37788;DHT22;23627;53.302;-6.362;2023-07-13T05:35:45;13.80;99.90
37788;DHT22;23627;53.302;-6.362;2023-07-13T05:38:11;13.90;99.90
37788;DHT22;23627;53.302;-6.362;2023-07-13T05:40:37;13.90;99.90
37788;DHT22;23627;53.302;-6.362;2023-07-13T05:43:03;13.90;99.90
37788;DHT22;23627;53.302;-6.362;2023-07-13T05:45:29;13.90;99.90
37788;DHT22;23627;53.302;-6.362;2023-07-13T05:47:54;13.90;99.90
37788;DHT22;23627;53.302;-6.362;2023-07-13T05:50:20;14.00;99.90
37788;DHT22;23627;53.302;-6.362;2023-07-13T05:52:46;14.00;99.90
37788;DHT22;23627;53.302;-6.362;2023-07-13T05:55:12;14.10;99.90
37788;DHT22;23627;53.302;-6.362;2023-07-13T05:57:38;14.10;99.90
37788;DHT22;23627;53.302;-6.362;2023-07-13T06:00:04;14.10;99.90
37788;DHT22;23627;53.302;-6.362;2023-07-13T06:02:30;14.20;99.90
37788;DHT22;23627;53.302;-6.362;2023-07-13T06:04:56;14.20;99.90
37788;DHT22;23627;53.302;-6.362;2023-07-13T06:07:22;14.20;99.90
37788;DHT22;23627;53.302;-6.362;2023-07-13T06:09:47;14.20;99.90
37788;DHT22;23627;53.302;-6.362;2023-07-13T06:12:13;14.30;99.90
37788;DHT22;23627;53.302;-6.362;2023-07-13T06:14:39;14.30;99.90
37788;DHT22;23627;53.302;-6.362;2023-07-13T06:17:05;14.30;99.90
37788;DHT22;23627;53.302;-6.362;2023-07-13T06:19:31;14.40;99.90
37788;DHT22;23627;53.302;-6.362;2023-07-13T06:21:57;14.40;99.90
37788;DHT22;23627;53.302;-6.362;2023-07-13T06:24:24;14.40;99.90
37788;DHT22;23627;53.302;-6.362;2023-07-13T06:26:50;14.40;99.90
37788;DHT22;23627;53.302;-6.362;2023-07-13T06:29:15;14.50;99.90
37788;DHT22;23627;53.302;-6.362;2023-07-13T06:31:41;14.50;99.90
37788;DHT22;23627;53.302;-6.362;2023-07-13T06:34:07;14.60;99.90
37788;DHT22;23627;53.302;-6.362;2023-07-13T06:36:33;14.80;99.90
37788;DHT22;23627;53.302;-6.362;2023-07-13T06:38:59;14.80;99.90
37788;DHT22;23627;53.302;-6.362;2023-07-13T06:41:24;14.90;99.90
37788;DHT22;23627;53.302;-6.362;2023-07-13T06:43:53;15.00;99.90
37788;DHT22;23627;53.302;-6.362;2023-07-13T06:46:23;15.00;99.90
37788;DHT22;23627;53.302;-6.362;2023-07-13T06:48:48;15.10;99.90
37788;DHT22;23627;53.302;-6.362;2023-07-13T06:51:14;15.20;99.90
37788;DHT22;23627;53.302;-6.362;2023-07-13T06:53:40;15.30;99.90
37788;DHT22;23627;53.302;-6.362;2023-07-13T06:56:08;15.40;99.90
37788;DHT22;23627;53.302;-6.362;2023-07-13T06:58:34;15.40;99.90
37788;DHT22;23627;53.302;-6.362;2023-07-13T07:01:00;15.40;99.90
37788;DHT22;23627;53.302;-6.362;2023-07-13T07:03:26;15.40;99.90
37788;DHT22;23627;53.302;-6.362;2023-07-13T07:05:51;15.40;99.90
37788;DHT22;23627;53.302;-6.362;2023-07-13T07:08:17;15.60;99.90
37788;DHT22;23627;53.302;-6.362;2023-07-13T07:10:43;15.70;99.90
37788;DHT22;23627;53.302;-6.362;2023-07-13T07:13:09;15.70;99.90
37788;DHT22;23627;53.302;-6.362;2023-07-13T07:15:35;15.70;99.90
37788;DHT22;23627;53.302;-6.362;2023-07-13T07:18:01;15.70;99.90
37788;DHT22;23627;53.302;-6.362;2023-07-13T07:20:27;15.80;99.90
37788;DHT22;23627;53.302;-6.362;2023-07-13T07:22:53;15.90;99.90
37788;DHT22;23627;53.302;-6.362;2023-07-13T07:25:19;15.90;99.90
37788;DHT22;23627;53.302;-6.362;2023-07-13T07:27:45;15.90;99.90
37788;DHT22;23627;53.302;-6.362;2023-07-13T07:30:11;15.90;99.90
37788;DHT22;23627;53.302;-6.362;2023-07-13T07:32:37;15.90;99.90
37788;DHT22;23627;53.302;-6.362;2023-07-13T07:35:03;15.90;99.90
37788;DHT22;23627;53.302;-6.362;2023-07-13T07:37:29;16.00;99.90
37788;DHT22;23627;53.302;-6.362;2023-07-13T07:39:55;16.10;99.90
37788;DHT22;23627;53.302;-6.362;2023-07-13T07:42:20;16.20;99.90
37788;DHT22;23627;53.302;-6.362;2023-07-13T07:44:46;16.20;99.90
37788;DHT22;23627;53.302;-6.362;2023-07-13T07:47:12;16.10;99.90
37788;DHT22;23627;53.302;-6.362;2023-07-13T07:49:38;16.10;99.90
37788;DHT22;23627;53.302;-6.362;2023-07-13T07:52:04;16.00;99.90
37788;DHT22;23627;53.302;-6.362;2023-07-13T07:54:29;16.00;99.90
37788;DHT22;23627;53.302;-6.362;2023-07-13T07:56:55;15.90;99.90
37788;DHT22;23627;53.302;-6.362;2023-07-13T07:59:21;15.90;99.90
37788;DHT22;23627;53.302;-6.362;2023-07-13T08:01:47;15.90;99.90
37788;DHT22;23627;53.302;-6.362;2023-07-13T08:04:15;15.90;99.90
37788;DHT22;23627;53.302;-6.362;2023-07-13T08:06:41;16.00;99.90
37788;DHT22;23627;53.302;-6.362;2023-07-13T08:09:07;16.10;99.90
37788;DHT22;23627;53.302;-6.362;2023-07-13T08:11:33;16.20;99.90
37788;DHT22;23627;53.302;-6.362;2023-07-13T08:13:59;16.20;99.90
37788;DHT22;23627;53.302;-6.362;2023-07-13T08:16:25;16.20;99.90
37788;DHT22;23627;53.302;-6.362;2023-07-13T08:18:51;16.20;99.90
37788;DHT22;23627;53.302;-6.362;2023-07-13T08:21:17;16.20;99.90
37788;DHT22;23627;53.302;-6.362;2023-07-13T08:23:45;16.20;99.90
37788;DHT22;23627;53.302;-6.362;2023-07-13T08:26:11;16.20;99.90
37788;DHT22;23627;53.302;-6.362;2023-07-13T08:28:37;16.30;99.90
37788;DHT22;23627;53.302;-6.362;2023-07-13T08:31:04;16.20;99.90
37788;DHT22;23627;53.302;-6.362;2023-07-13T08:33:30;16.20;99.90
37788;DHT22;23627;53.302;-6.362;2023-07-13T08:35:56;16.20;99.90
37788;DHT22;23627;53.302;-6.362;2023-07-13T08:38:22;16.30;99.90
37788;DHT22;23627;53.302;-6.362;2023-07-13T08:40:53;16.40;99.90
37788;DHT22;23627;53.302;-6.362;2023-07-13T08:43:28;16.50;99.90
37788;DHT22;23627;53.302;-6.362;2023-07-13T08:51:29;17.00;99.90
37788;DHT22;23627;53.302;-6.362;2023-07-13T08:54:02;17.30;99.90
37788;DHT22;23627;53.302;-6.362;2023-07-13T08:56:29;17.60;99.90
37788;DHT22;23627;53.302;-6.362;2023-07-13T08:59:03;18.00;99.90
37788;DHT22;23627;53.302;-6.362;2023-07-13T09:04:28;18.80;99.90
37788;DHT22;23627;53.302;-6.362;2023-07-13T09:07:01;19.00;99.90
37788;DHT22;23627;53.302;-6.362;2023-07-13T09:09:33;19.10;99.90
37788;DHT22;23627;53.302;-6.362;2023-07-13T09:14:43;18.70;99.90
37788;DHT22;23627;53.302;-6.362;2023-07-13T09:17:14;18.50;99.90
37788;DHT22;23627;53.302;-6.362;2023-07-13T09:19:44;18.40;99.90
37788;DHT22;23627;53.302;-6.362;2023-07-13T09:22:16;18.40;99.90
37788;DHT22;23627;53.302;-6.362;2023-07-13T09:25:26;18.30;99.90
37788;DHT22;23627;53.302;-6.362;2023-07-13T09:27:55;18.30;99.90
37788;DHT22;23627;53.302;-6.362;2023-07-13T09:30:46;18.30;99.90
37788;DHT22;23627;53.302;-6.362;2023-07-13T09:33:17;18.30;99.90
37788;DHT22;23627;53.302;-6.362;2023-07-13T09:35:42;18.30;99.90
37788;DHT22;23627;53.302;-6.362;2023-07-13T09:38:14;18.50;99.90
37788;DHT22;23627;53.302;-6.362;2023-07-13T09:40:48;18.80;99.90
37788;DHT22;23627;53.302;-6.362;2023-07-13T09:43:17;19.00;99.90
37788;DHT22;23627;53.302;-6.362;2023-07-13T09:45:46;19.20;99.90
37788;DHT22;23627;53.302;-6.362;2023-07-13T09:48:14;19.50;99.90
37788;DHT22;23627;53.302;-6.362;2023-07-13T09:50:41;19.60;99.90
37788;DHT22;23627;53.302;-6.362;2023-07-13T09:53:16;19.80;99.90
37788;DHT22;23627;53.302;-6.362;2023-07-13T09:55:44;19.90;99.90
37788;DHT22;23627;53.302;-6.362;2023-07-13T09:58:16;20.00;99.90
37788;DHT22;23627;53.302;-6.362;2023-07-13T10:00:57;20.10;99.90
37788;DHT22;23627;53.302;-6.362;2023-07-13T10:03:31;20.00;99.90
37788;DHT22;23627;53.302;-6.362;2023-07-13T10:06:20;19.90;99.90
37788;DHT22;23627;53.302;-6.362;2023-07-13T10:08:52;19.90;99.90
37788;DHT22;23627;53.302;-6.362;2023-07-13T10:11:27;19.90;99.90
37788;DHT22;23627;53.302;-6.362;2023-07-13T10:14:02;20.00;99.90
37788;DHT22;23627;53.302;-6.362;2023-07-13T10:16:35;20.20;99.90
37788;DHT22;23627;53.302;-6.362;2023-07-13T10:19:21;20.20;99.90
37788;DHT22;23627;53.302;-6.362;2023-07-13T10:21:56;20.30;99.90
37788;DHT22;23627;53.302;-6.362;2023-07-13T10:24:32;20.30;99.90
37788;DHT22;23627;53.302;-6.362;2023-07-13T10:27:03;20.30;99.90
37788;DHT22;23627;53.302;-6.362;2023-07-13T10:29:35;20.40;99.90
37788;DHT22;23627;53.302;-6.362;2023-07-13T10:32:03;20.50;99.90
37788;DHT22;23627;53.302;-6.362;2023-07-13T10:34:30;20.60;99.90
37788;DHT22;23627;53.302;-6.362;2023-07-13T10:36:56;20.60;99.90
37788;DHT22;23627;53.302;-6.362;2023-07-13T10:39:27;20.50;99.90
37788;DHT22;23627;53.302;-6.362;2023-07-13T10:41:57;20.50;99.90
37788;DHT22;23627;53.302;-6.362;2023-07-13T10:44:27;20.50;99.90
37788;DHT22;23627;53.302;-6.362;2023-07-13T10:47:15;20.60;99.90
37788;DHT22;23627;53.302;-6.362;2023-07-13T10:49:42;20.70;99.90
37788;DHT22;23627;53.302;-6.362;2023-07-13T10:52:40;20.70;99.90
37788;DHT22;23627;53.302;-6.362;2023-07-13T10:55:36;20.80;99.90
37788;DHT22;23627;53.302;-6.362;2023-07-13T10:58:24;20.90;99.90
37788;DHT22;23627;53.302;-6.362;2023-07-13T11:01:16;20.80;99.90
37788;DHT22;23627;53.302;-6.362;2023-07-13T11:03:55;20.80;99.90
37788;DHT22;23627;53.302;-6.362;2023-07-13T11:08:56;21.00;99.90
37788;DHT22;23627;53.302;-6.362;2023-07-13T11:18:51;21.30;99.90
37788;DHT22;23627;53.302;-6.362;2023-07-13T11:21:20;21.30;99.90
37788;DHT22;23627;53.302;-6.362;2023-07-13T11:23:54;21.20;99.90
37788;DHT22;23627;53.302;-6.362;2023-07-13T11:26:39;21.10;99.90
37788;DHT22;23627;53.302;-6.362;2023-07-13T11:32:01;20.50;99.90
37788;DHT22;23627;53.302;-6.362;2023-07-13T11:34:42;20.30;99.90
37788;DHT22;23627;53.302;-6.362;2023-07-13T11:37:12;20.20;99.90
37788;DHT22;23627;53.302;-6.362;2023-07-13T11:39:42;20.10;99.90
37788;DHT22;23627;53.302;-6.362;2023-07-13T11:42:12;20.10;99.90
37788;DHT22;23627;53.302;-6.362;2023-07-13T11:44:46;20.10;99.90
37788;DHT22;23627;53.302;-6.362;2023-07-13T11:47:20;20.30;99.90
37788;DHT22;23627;53.302;-6.362;2023-07-13T11:49:52;20.30;99.90
37788;DHT22;23627;53.302;-6.362;2023-07-13T11:52:26;20.40;99.90
37788;DHT22;23627;53.302;-6.362;2023-07-13T11:54:57;20.30;99.90
37788;DHT22;23627;53.302;-6.362;2023-07-13T11:57:31;20.10;99.90
37788;DHT22;23627;53.302;-6.362;2023-07-13T12:00:04;20.20;99.90
37788;DHT22;23627;53.302;-6.362;2023-07-13T12:02:43;20.30;99.90
37788;DHT22;23627;53.302;-6.362;2023-07-13T12:05:13;20.40;99.90
37788;DHT22;23627;53.302;-6.362;2023-07-13T12:07:39;20.60;99.90
37788;DHT22;23627;53.302;-6.362;2023-07-13T12:12:36;20.80;99.90
37788;DHT22;23627;53.302;-6.362;2023-07-13T12:15:12;20.80;99.90
37788;DHT22;23627;53.302;-6.362;2023-07-13T12:17:38;20.90;99.90
37788;DHT22;23627;53.302;-6.362;2023-07-13T12:20:26;20.80;99.90
37788;DHT22;23627;53.302;-6.362;2023-07-13T12:22:53;20.80;99.90
37788;DHT22;23627;53.302;-6.362;2023-07-13T12:25:19;20.70;99.90
37788;DHT22;23627;53.302;-6.362;2023-07-13T12:27:50;20.70;99.90
37788;DHT22;23627;53.302;-6.362;2023-07-13T12:30:31;20.80;99.90
37788;DHT22;23627;53.302;-6.362;2023-07-13T12:33:11;20.80;99.90
37788;DHT22;23627;53.302;-6.362;2023-07-13T12:35:45;20.90;99.90
37788;DHT22;23627;53.302;-6.362;2023-07-13T12:38:12;21.00;99.90
37788;DHT22;23627;53.302;-6.362;2023-07-13T12:40:38;21.00;99.90
37788;DHT22;23627;53.302;-6.362;2023-07-13T12:43:13;21.00;99.90
37788;DHT22;23627;53.302;-6.362;2023-07-13T12:46:04;20.90;99.90
37788;DHT22;23627;53.302;-6.362;2023-07-13T12:48:38;20.70;99.90
37788;DHT22;23627;53.302;-6.362;2023-07-13T12:51:10;20.60;99.90
37788;DHT22;23627;53.302;-6.362;2023-07-13T12:53:41;20.50;99.90
37788;DHT22;23627;53.302;-6.362;2023-07-13T12:56:24;20.40;99.90
37788;DHT22;23627;53.302;-6.362;2023-07-13T12:58:57;20.30;99.90
37788;DHT22;23627;53.302;-6.362;2023-07-13T13:01:27;20.30;99.90
37788;DHT22;23627;53.302;-6.362;2023-07-13T13:03:54;20.40;99.90
37788;DHT22;23627;53.302;-6.362;2023-07-13T13:06:28;20.50;99.90
37788;DHT22;23627;53.302;-6.362;2023-07-13T13:08:56;20.70;99.90
37788;DHT22;23627;53.302;-6.362;2023-07-13T13:11:24;20.90;99.90
37788;DHT22;23627;53.302;-6.362;2023-07-13T13:13:52;20.80;99.90
37788;DHT22;23627;53.302;-6.362;2023-07-13T13:16:33;21.00;99.90
37788;DHT22;23627;53.302;-6.362;2023-07-13T13:19:17;21.10;99.90
37788;DHT22;23627;53.302;-6.362;2023-07-13T13:21:43;21.30;99.90
37788;DHT22;23627;53.302;-6.362;2023-07-13T13:24:15;21.40;99.90
37788;DHT22;23627;53.302;-6.362;2023-07-13T13:26:41;21.30;99.90
37788;DHT22;23627;53.302;-6.362;2023-07-13T13:29:15;21.30;99.90
37788;DHT22;23627;53.302;-6.362;2023-07-13T13:31:42;21.30;99.90
37788;DHT22;23627;53.302;-6.362;2023-07-13T13:34:10;21.20;99.90
37788;DHT22;23627;53.302;-6.362;2023-07-13T13:36:36;21.20;99.90
37788;DHT22;23627;53.302;-6.362;2023-07-13T13:39:04;21.10;99.90
37788;DHT22;23627;53.302;-6.362;2023-07-13T13:41:32;21.10;99.90
37788;DHT22;23627;53.302;-6.362;2023-07-13T13:43:57;21.10;99.90
37788;DHT22;23627;53.302;-6.362;2023-07-13T13:46:24;21.20;99.90
37788;DHT22;23627;53.302;-6.362;2023-07-13T13:48:55;21.20;99.90
37788;DHT22;23627;53.302;-6.362;2023-07-13T13:51:23;21.20;99.90
37788;DHT22;23627;53.302;-6.362;2023-07-13T13:53:49;21.20;99.90
37788;DHT22;23627;53.302;-6.362;2023-07-13T13:56:18;21.10;99.90
37788;DHT22;23627;53.302;-6.362;2023-07-13T13:58:43;21.10;99.90
37788;DHT22;23627;53.302;-6.362;2023-07-13T14:01:17;21.10;99.90
37788;DHT22;23627;53.302;-6.362;2023-07-13T14:03:44;21.00;99.90
37788;DHT22;23627;53.302;-6.362;2023-07-13T14:06:14;21.00;99.90
37788;DHT22;23627;53.302;-6.362;2023-07-13T14:08:40;21.10;99.90
37788;DHT22;23627;53.302;-6.362;2023-07-13T14:11:13;21.20;99.90
37788;DHT22;23627;53.302;-6.362;2023-07-13T14:13:43;21.40;99.90
37788;DHT22;23627;53.302;-6.362;2023-07-13T14:16:16;21.30;99.90
37788;DHT22;23627;53.302;-6.362;2023-07-13T14:18:44;21.20;99.90
37788;DHT22;23627;53.302;-6.362;2023-07-13T14:21:22;21.10;99.90
37788;DHT22;23627;53.302;-6.362;2023-07-13T14:23:49;21.00;99.90
37788;DHT22;23627;53.302;-6.362;2023-07-13T14:26:18;21.00;99.90
37788;DHT22;23627;53.302;-6.362;2023-07-13T14:28:50;20.90;99.90
37788;DHT22;23627;53.302;-6.362;2023-07-13T14:31:17;20.80;99.90
37788;DHT22;23627;53.302;-6.362;2023-07-13T14:33:44;20.60;99.90
37788;DHT22;23627;53.302;-6.362;2023-07-13T14:36:32;20.60;99.90
37788;DHT22;23627;53.302;-6.362;2023-07-13T14:39:00;20.50;99.90
37788;DHT22;23627;53.302;-6.362;2023-07-13T14:41:28;20.40;99.90
37788;DHT22;23627;53.302;-6.362;2023-07-13T14:43:53;20.30;99.90
37788;DHT22;23627;53.302;-6.362;2023-07-13T14:46:27;20.20;99.90
37788;DHT22;23627;53.302;-6.362;2023-07-13T14:49:24;20.30;99.90
37788;DHT22;23627;53.302;-6.362;2023-07-13T14:51:45;20.30;99.90
37788;DHT22;23627;53.302;-6.362;2023-07-13T14:54:11;20.40;99.90
37788;DHT22;23627;53.302;-6.362;2023-07-13T14:56:37;20.70;99.90
37788;DHT22;23627;53.302;-6.362;2023-07-13T14:59:03;20.90;99.90
37788;DHT22;23627;53.302;-6.362;2023-07-13T15:01:30;21.00;99.90
37788;DHT22;23627;53.302;-6.362;2023-07-13T15:03:57;21.10;99.90
37788;DHT22;23627;53.302;-6.362;2023-07-13T15:06:23;21.10;99.90
37788;DHT22;23627;53.302;-6.362;2023-07-13T15:08:49;21.00;99.90
37788;DHT22;23627;53.302;-6.362;2023-07-13T15:11:16;21.00;99.90
37788;DHT22;23627;53.302;-6.362;2023-07-13T15:13:42;21.00;99.90
37788;DHT22;23627;53.302;-6.362;2023-07-13T15:16:18;21.10;99.90
37788;DHT22;23627;53.302;-6.362;2023-07-13T15:18:46;21.20;99.90
37788;DHT22;23627;53.302;-6.362;2023-07-13T15:21:17;21.20;99.90
37788;DHT22;23627;53.302;-6.362;2023-07-13T15:23:44;21.30;99.90
37788;DHT22;23627;53.302;-6.362;2023-07-13T15:26:18;21.30;99.90
37788;DHT22;23627;53.302;-6.362;2023-07-13T15:28:45;21.20;99.90
37788;DHT22;23627;53.302;-6.362;2023-07-13T15:33:44;21.10;99.90
37788;DHT22;23627;53.302;-6.362;2023-07-13T15:36:14;21.20;99.90
37788;DHT22;23627;53.302;-6.362;2023-07-13T15:38:39;21.20;99.90
37788;DHT22;23627;53.302;-6.362;2023-07-13T15:41:19;21.30;99.90
37788;DHT22;23627;53.302;-6.362;2023-07-13T15:43:49;21.30;99.90
37788;DHT22;23627;53.302;-6.362;2023-07-13T15:46:18;21.20;99.90
37788;DHT22;23627;53.302;-6.362;2023-07-13T15:48:45;21.10;99.90
37788;DHT22;23627;53.302;-6.362;2023-07-13T15:51:28;21.00;99.90
37788;DHT22;23627;53.302;-6.362;2023-07-13T15:53:57;20.90;99.90
37788;DHT22;23627;53.302;-6.362;2023-07-13T15:56:28;20.70;99.90
37788;DHT22;23627;53.302;-6.362;2023-07-13T15:58:55;20.50;99.90